Nearby METAR Reports

 

KSJC - San Jose, California, USA
Distance from station: NE 14km
Updated: 22/10/2018 09:53
Overcast
Overcast
 Wind from NW
Wind: NW 6 km/h
Temperature: 13°C
Dew Point: 11°C
Humidity: 88%
Barometer: 1014.6 hPa
Clouds: Overcast
Visibility: 11 km
Cloud details: Few Clouds 91 m
Mostly cloudy 305 m
Overcast 366 m
2018/10/22 12:53 KSJC 221253Z 32003KT 7SM FEW003 BKN010 OVC012 13/11 A2996 RMK AO2 SLP146 T01330106
KNUQ - Moffett Nas/Mtn, California, USA
Distance from station: N 14km
Updated: 22/10/2018 09:56
Overcast
Overcast
 Wind from calm
Wind: Calm
Temperature: 13°C
Dew Point: 11°C
Humidity: 88%
Barometer: 1014.9 hPa
Clouds: Overcast
Visibility: 16 km
Cloud details: Overcast 335 m
2018/10/22 12:56 KNUQ 221256Z 00000KT 10SM OVC011 13/11 A2997 RMK AO2 SLP152 T01330111
 
KPAO - Palo Alto, California, USA
Distance from station: NNW 23km
Updated: 22/10/2018 00:47
NOT Current
Clear
Clear
 Wind from WNW
Wind: WNW 9 km/h
Temperature: 13°C
Dew Point: 10°C
Humidity: 82%
Barometer: 1014.2 hPa
Clouds: Clear
Visibility: 16 km
2018/10/22 03:47 KPAO 220347Z 30005KT 10SM SKC 13/10 A2995 RMK LAST
KRHV - San Jose/Reid, California, USA
Distance from station: ENE 19km
Updated: 22/10/2018 01:50
NOT Current
Clear
Clear
 Wind from calm
Wind: Calm
Temperature: 14°C
Dew Point: 12°C
Humidity: 88%
Barometer: 1013.9 hPa
Clouds: Clear
Visibility: 16 km
2018/10/22 04:50 KRHV 220450Z 00000KT 10SM SKC 14/12 A2994 RMK LAST
 
KOAK - Oakland, California, USA
Distance from station: NNW 50km
Updated: 22/10/2018 09:53
Overcast
Overcast
 Wind from W
Wind: W 13 km/h
Temperature: 13°C
Dew Point: 11°C
Humidity: 88%
Barometer: 1014.9 hPa
Clouds: Overcast
Visibility: 16 km
Cloud details: Few Clouds 244 m
Overcast 427 m
2018/10/22 12:53 KOAK 221253Z 27007KT 10SM FEW008 OVC014 13/11 A2997 RMK AO2 SLP148 T01330106
KSQL - San Carlos Airpo, California, USA
Distance from station: NW 34km
Updated: 22/10/2018 10:20
Overcast
Overcast
 Wind from calm
Wind: Calm
Temperature: 12°C
Dew Point: 10°C
Humidity: 88%
Barometer: 1014.9 hPa
Clouds: Overcast
Visibility: 16 km
Cloud details: Overcast 305 m
2018/10/22 13:20 KSQL 221320Z AUTO 00000KT 10SM OVC010 12/10 A2997 RMK AO2
 
KSFO - San Francisco, California, USA
Distance from station: NW 49km
Updated: 22/10/2018 09:56
Mostly cloudy
Mostly cloudy
 Wind from WSW
Wind: WSW 15 km/h
Temperature: 13°C
Dew Point: 9°C
Humidity: 77%
Barometer: 1014.6 hPa
Clouds: Mostly cloudy
Visibility: 16 km
Cloud details: Few Clouds 305 m
Mostly cloudy 427 m
2018/10/22 12:56 KSFO 221256Z 25008KT 10SM FEW010 BKN014 13/09 A2996 RMK AO2 SLP144 T01280094
KE16 - San Martin, California, USA
Distance from station: ESE 43km
Updated: 22/10/2018 10:15
Overcast
Overcast
 Wind from N
Wind: N 9 km/h
Temperature: 12°C
Dew Point: 10°C
Humidity: 88%
Barometer: 1015.2 hPa
Clouds: Overcast
Visibility: 11 km
Cloud details: Overcast 213 m
2018/10/22 13:15 KE16 221315Z AUTO 35005KT 7SM OVC007 12/10 A2998 RMK AO2
 
KWVI - Watsonville, California, USA
Distance from station: SSE 44km
Updated: 22/10/2018 09:53
Mist, Overcast
Mist, Overcast
 Wind from calm
Wind: Calm
Temperature: 11°C
Dew Point: 11°C
Humidity: 100%
Barometer: 1014.6 hPa
Summary: Mist
Clouds: Overcast
Visibility: 6 km
Cloud details: Overcast 91 m
2018/10/22 12:53 KWVI 221253Z AUTO 00000KT 4SM BR OVC003 11/11 A2996 RMK AO2 SLP144 T01110106
KHAF - Half Moon Bay, California, USA
Distance from station: WNW 50km
Updated: 03/10/2018 17:40
NOT Current
Haze, Mostly cloudy
Haze, Mostly cloudy
 Wind from S
Wind: S 7 km/h
Temperature: 18°C
Dew Point: 15°C
Humidity: 83%
Barometer: 1013.2 hPa
Summary: Haze
Clouds: Mostly cloudy
Visibility: 6 km
Cloud details: Few Clouds 640 m
Mostly cloudy 914 m
2018/10/03 20:40 KHAF 032040Z AUTO 19004KT 4SM HZ FEW021 BKN030 18/15 A2992 RMK AO2
 
KHWD - Hayward, California, USA
Distance from station: N 44km
Updated: 22/10/2018 09:54
Overcast
Overcast
 Wind from WNW
Wind: WNW 6 km/h
Temperature: 14°C
Dew Point: 10°C
Humidity: 77%
Barometer: 1014.6 hPa
Clouds: Overcast
Visibility: 16 km
Cloud details: Overcast 396 m
2018/10/22 12:54 KHWD 221254Z AUTO 30003KT 10SM OVC013 14/10 A2996 RMK AO2 SLP156 T01390100
KLVK - Livermore, California, USA
Distance from station: NNE 51km
Updated: 22/10/2018 09:53
Mist, Overcast
Mist, Overcast
 Wind from calm
Wind: Calm
Temperature: 11°C
Dew Point: 10°C
Humidity: 94%
Barometer: 1014.2 hPa
Summary: Mist
Clouds: Overcast
Visibility: 10 km
Cloud details: Overcast 183 m
2018/10/22 12:53 KLVK 221253Z AUTO 00000KT 6SM BR OVC006 11/10 A2995 RMK AO2 SLP141 T01110100